createdAt,value
2022-10-21T00:00:40.933Z,67.67
2022-10-21T00:04:04.036Z,67.65
2022-10-21T00:07:06.992Z,67.68
2022-10-21T00:10:10.395Z,67.77
2022-10-21T00:13:13.302Z,67.81
2022-10-21T00:16:18.642Z,67.84
2022-10-21T00:19:21.491Z,67.82
2022-10-21T00:22:24.508Z,67.86
2022-10-21T00:25:27.507Z,67.91
2022-10-21T00:28:30.838Z,67.95
2022-10-21T00:31:34.855Z,67.99
2022-10-21T00:34:37.777Z,68.06
2022-10-21T00:37:40.924Z,68.11
2022-10-21T00:40:43.940Z,68.16
2022-10-21T00:44:14.618Z,68.24
2022-10-21T00:47:22.204Z,68.22
2022-10-21T00:50:38.844Z,68.29
2022-10-21T00:53:48.062Z,68.27
2022-10-21T01:00:02.507Z,68.30
2022-10-21T01:03:05.496Z,68.34
2022-10-21T01:06:11.177Z,68.38
2022-10-21T01:09:15.048Z,68.39
2022-10-21T01:12:30.207Z,68.42
2022-10-21T01:15:42.430Z,68.43
2022-10-21T01:18:59.041Z,68.49
2022-10-21T01:22:04.948Z,68.48
2022-10-21T01:25:22.625Z,68.52
2022-10-21T01:28:31.211Z,68.55
2022-10-21T01:31:47.990Z,68.54
2022-10-21T01:35:13.815Z,68.51
2022-10-21T01:38:42.293Z,68.54
2022-10-21T01:42:00.562Z,68.61
2022-10-21T01:45:27.291Z,68.59
2022-10-21T01:48:38.291Z,68.65
2022-10-21T01:51:42.851Z,68.71
2022-10-21T01:54:52.983Z,68.81
2022-10-21T01:58:03.855Z,68.95
2022-10-21T02:01:10.446Z,69.00
2022-10-21T02:04:16.205Z,69.07
2022-10-21T02:07:21.439Z,69.12
2022-10-21T02:10:28.258Z,69.13
2022-10-21T02:13:36.179Z,69.22
2022-10-21T02:16:41.549Z,69.31
2022-10-21T02:19:44.592Z,69.27
2022-10-21T02:22:49.235Z,69.22
2022-10-21T02:25:52.632Z,69.25
2022-10-21T02:28:58.238Z,69.20
2022-10-21T02:32:23.248Z,69.23
2022-10-21T02:35:46.396Z,69.15
2022-10-21T02:38:54.133Z,69.10
2022-10-21T02:42:00.358Z,69.10
2022-10-21T02:45:04.737Z,69.12
2022-10-21T02:48:07.834Z,69.19
2022-10-21T02:51:11.409Z,69.25
2022-10-21T02:54:20.692Z,69.27
2022-10-21T02:57:23.643Z,69.34
2022-10-21T03:00:30.738Z,69.31
2022-10-21T03:03:35.790Z,69.27
2022-10-21T03:06:38.743Z,69.28
2022-10-21T03:09:41.809Z,69.33
2022-10-21T03:12:44.760Z,69.45
2022-10-21T03:15:49.115Z,69.48
2022-10-21T03:18:52.036Z,69.51
2022-10-21T03:21:54.965Z,69.53
2022-10-21T03:24:57.949Z,69.57
2022-10-21T03:28:00.974Z,69.59
2022-10-21T03:31:03.981Z,69.67
2022-10-21T03:34:06.956Z,69.75
2022-10-21T03:37:10.018Z,69.79
2022-10-21T03:40:13.061Z,69.82
2022-10-21T03:43:16.008Z,69.86
2022-10-21T03:46:19.048Z,69.87
2022-10-21T03:49:22.073Z,69.88
2022-10-21T03:52:25.111Z,69.91
2022-10-21T03:55:28.019Z,69.93
2022-10-21T03:58:31.108Z,69.98
2022-10-21T04:01:34.189Z,69.97
2022-10-21T04:04:37.340Z,70.00
2022-10-21T04:07:40.600Z,69.95
2022-10-21T04:10:45.883Z,69.90
2022-10-21T04:13:49.370Z,69.86
2022-10-21T04:17:02.105Z,69.85
2022-10-21T04:20:06.225Z,69.86
2022-10-21T04:23:09.126Z,69.84
2022-10-21T04:26:12.214Z,69.93
2022-10-21T04:29:15.105Z,70.05
2022-10-21T04:32:18.175Z,70.14
2022-10-21T04:35:21.120Z,70.22
2022-10-21T04:38:27.189Z,70.31
2022-10-21T04:41:30.342Z,70.38
2022-10-21T04:44:33.354Z,70.50
2022-10-21T04:47:36.566Z,70.56
2022-10-21T04:50:39.838Z,70.63
2022-10-21T04:53:42.877Z,70.63
2022-10-21T04:56:45.780Z,70.68
2022-10-21T04:59:48.775Z,70.70
2022-10-21T05:02:51.693Z,70.68
2022-10-21T05:05:54.667Z,70.64
2022-10-21T05:08:57.755Z,70.66
2022-10-21T05:12:00.896Z,70.63
2022-10-21T05:15:04.326Z,70.65
2022-10-21T05:18:07.350Z,70.63
2022-10-21T05:21:10.361Z,70.58
2022-10-21T05:24:14.828Z,70.64
2022-10-21T05:27:17.808Z,70.74
2022-10-21T05:30:21.278Z,70.86
2022-10-21T05:33:24.862Z,71.00
2022-10-21T05:36:27.869Z,71.06
2022-10-21T05:39:30.858Z,71.13
2022-10-21T05:42:34.078Z,71.31
2022-10-21T05:45:37.020Z,71.39
2022-10-21T05:48:40.273Z,71.50
2022-10-21T05:51:44.819Z,71.64
2022-10-21T05:54:47.796Z,71.76
2022-10-21T06:00:55.408Z,72.03
2022-10-21T06:03:58.482Z,72.09
2022-10-21T06:07:01.503Z,72.19
2022-10-21T06:10:04.677Z,72.31
2022-10-21T06:13:07.637Z,72.39
2022-10-21T06:16:12.352Z,72.40
2022-10-21T06:19:15.361Z,72.43
2022-10-21T06:22:18.495Z,72.46
2022-10-21T06:25:21.828Z,72.43
2022-10-21T06:28:25.429Z,72.45
2022-10-21T06:31:29.036Z,72.50
2022-10-21T06:34:32.049Z,72.52
2022-10-21T06:37:35.051Z,72.61
2022-10-21T06:40:38.463Z,72.53
2022-10-21T06:43:42.925Z,72.52
2022-10-21T06:46:46.247Z,72.55
2022-10-21T06:49:49.194Z,72.55
2022-10-21T06:52:52.080Z,72.52
2022-10-21T06:56:09.235Z,72.59
2022-10-21T06:59:12.164Z,72.67
2022-10-21T07:02:15.091Z,72.75
2022-10-21T07:05:18.195Z,72.95
2022-10-21T07:08:22.509Z,73.09
2022-10-21T07:11:32.869Z,73.33
2022-10-21T07:14:35.789Z,73.55
2022-10-21T07:17:38.804Z,73.70
2022-10-21T07:20:41.925Z,73.99
2022-10-21T07:23:46.278Z,73.91
2022-10-21T07:26:49.686Z,73.87
2022-10-21T07:29:52.561Z,73.74
2022-10-21T07:32:55.494Z,73.74
2022-10-21T07:36:07.670Z,73.75
2022-10-21T07:39:17.427Z,73.94
2022-10-21T07:42:21.506Z,73.83
2022-10-21T07:45:24.485Z,73.76
2022-10-21T07:48:27.355Z,73.55
2022-10-21T07:51:31.502Z,73.51
2022-10-21T07:54:37.387Z,73.31
2022-10-21T07:57:41.103Z,73.11
2022-10-21T08:00:44.666Z,73.09
2022-10-21T08:03:48.686Z,73.35
2022-10-21T08:06:51.657Z,73.45
2022-10-21T08:09:54.532Z,73.33
2022-10-21T08:12:57.392Z,73.32
2022-10-21T08:16:01.076Z,73.38
2022-10-21T08:19:06.076Z,73.44
2022-10-21T08:22:09.623Z,73.40
2022-10-21T08:25:16.745Z,73.24
2022-10-21T08:28:20.982Z,73.23
2022-10-21T08:31:24.042Z,73.36
2022-10-21T08:34:26.942Z,73.20
2022-10-21T08:37:29.836Z,73.29
2022-10-21T08:40:44.395Z,73.35
2022-10-21T08:43:47.489Z,73.28
2022-10-21T08:46:58.085Z,73.19
2022-10-21T08:50:12.756Z,73.26
2022-10-21T08:53:23.250Z,73.18
2022-10-21T08:56:26.300Z,72.83
2022-10-21T08:59:29.197Z,72.84
2022-10-21T09:02:34.829Z,72.84
2022-10-21T09:06:08.881Z,72.77
2022-10-21T09:09:44.325Z,72.55
2022-10-21T09:13:13.274Z,72.43
2022-10-21T09:17:12.194Z,72.27
2022-10-21T09:20:51.086Z,72.03
2022-10-21T09:24:36.256Z,71.89
2022-10-21T09:27:54.981Z,71.80
2022-10-21T09:31:02.695Z,71.47
2022-10-21T09:34:15.204Z,71.25
2022-10-21T09:37:31.689Z,71.47
2022-10-21T09:40:37.854Z,71.32
2022-10-21T09:43:40.798Z,71.19
2022-10-21T09:46:47.707Z,71.03
2022-10-21T09:50:07.328Z,71.13
2022-10-21T09:53:20.367Z,70.93
2022-10-21T09:56:30.088Z,70.82
2022-10-21T09:59:33.651Z,70.70
2022-10-21T10:02:40.059Z,70.74
2022-10-21T10:05:49.284Z,70.95
2022-10-21T10:08:52.419Z,70.98
2022-10-21T10:11:58.392Z,70.91
2022-10-21T10:15:39.386Z,70.76
2022-10-21T10:18:44.415Z,70.57
2022-10-21T10:22:10.223Z,70.54
2022-10-21T10:25:13.699Z,70.65
2022-10-21T10:28:24.001Z,70.49
2022-10-21T10:31:34.052Z,70.53
2022-10-21T10:34:48.147Z,70.42
2022-10-21T10:37:53.057Z,70.53
2022-10-21T10:41:05.720Z,70.53
2022-10-21T10:44:18.404Z,70.54
2022-10-21T10:47:26.673Z,70.76
2022-10-21T10:50:43.043Z,70.84
2022-10-21T10:53:45.936Z,70.72
2022-10-21T10:57:03.457Z,70.73
2022-10-21T11:00:14.286Z,70.43
2022-10-21T11:03:29.841Z,70.22
2022-10-21T11:06:43.647Z,70.24
2022-10-21T11:09:49.275Z,70.30
2022-10-21T11:12:52.979Z,70.31
2022-10-21T11:16:14.474Z,70.31
2022-10-21T11:19:34.702Z,70.06
2022-10-21T11:23:02.002Z,70.12
2022-10-21T11:26:27.558Z,70.07
2022-10-21T11:29:46.135Z,69.98
2022-10-21T11:32:58.180Z,70.03
2022-10-21T11:36:11.826Z,70.10
2022-10-21T11:39:30.906Z,70.16
2022-10-21T11:42:43.791Z,70.23
2022-10-21T11:46:01.980Z,70.38
2022-10-21T11:49:22.942Z,70.31
2022-10-21T11:52:37.205Z,70.52
2022-10-21T11:56:00.608Z,70.39
2022-10-21T11:59:18.684Z,70.61
2022-10-21T12:02:25.036Z,70.40
2022-10-21T12:05:36.958Z,70.45
2022-10-21T12:08:51.638Z,70.33
2022-10-21T12:12:00.579Z,70.31
2022-10-21T12:15:14.668Z,70.24
2022-10-21T12:18:22.152Z,70.37
2022-10-21T12:21:28.767Z,70.49
2022-10-21T12:24:34.655Z,70.31
2022-10-21T12:27:58.967Z,70.45
2022-10-21T12:31:17.814Z,70.34
2022-10-21T12:34:21.767Z,70.37
2022-10-21T12:37:57.127Z,70.44
2022-10-21T12:41:21.593Z,70.50
2022-10-21T12:44:27.471Z,70.68
2022-10-21T12:47:40.298Z,70.47
2022-10-21T12:50:45.102Z,70.41
2022-10-21T12:53:52.825Z,70.77
2022-10-21T12:57:04.777Z,70.85
2022-10-21T13:03:41.006Z,70.98
2022-10-21T13:06:56.461Z,71.01
2022-10-21T13:09:59.211Z,70.95
2022-10-21T13:13:30.517Z,71.07
2022-10-21T13:16:40.838Z,71.05
2022-10-21T13:19:43.849Z,71.26
2022-10-21T13:23:02.050Z,71.27
2022-10-21T13:26:19.630Z,71.44
2022-10-21T13:29:29.567Z,71.44
2022-10-21T13:32:37.635Z,71.35
2022-10-21T13:35:46.460Z,71.34
2022-10-21T13:38:52.482Z,71.24
2022-10-21T13:41:58.920Z,71.15
2022-10-21T13:45:08.224Z,71.41
2022-10-21T13:48:18.260Z,71.63
2022-10-21T13:51:27.152Z,71.80
2022-10-21T13:54:35.501Z,71.85
2022-10-21T13:57:38.730Z,71.75
2022-10-21T14:00:41.988Z,71.82
2022-10-21T14:03:45.357Z,71.88
2022-10-21T14:06:57.030Z,71.93
2022-10-21T14:10:00.121Z,72.04
2022-10-21T14:13:04.513Z,72.16
2022-10-21T14:16:08.885Z,72.20
2022-10-21T14:19:21.868Z,72.13
2022-10-21T14:22:26.883Z,72.12
2022-10-21T14:25:32.628Z,72.06
2022-10-21T14:28:37.302Z,72.13
2022-10-21T14:31:44.223Z,72.11
2022-10-21T14:34:58.368Z,72.18
2022-10-21T14:38:03.690Z,72.12
2022-10-21T14:41:11.326Z,71.93
2022-10-21T14:44:19.644Z,71.69
2022-10-21T14:47:25.481Z,71.61
2022-10-21T14:50:28.432Z,71.50
2022-10-21T14:53:35.678Z,71.56
2022-10-21T14:56:42.858Z,71.57
2022-10-21T14:59:50.330Z,71.71
2022-10-21T15:02:54.369Z,71.49
2022-10-21T15:06:25.227Z,71.36
2022-10-21T15:09:28.873Z,71.09
2022-10-21T15:12:50.499Z,70.99
2022-10-21T15:15:55.998Z,70.86
2022-10-21T15:18:59.473Z,70.82
2022-10-21T15:22:04.230Z,70.80
2022-10-21T15:25:16.913Z,70.77
2022-10-21T15:28:20.529Z,70.68
2022-10-21T15:31:26.947Z,70.67
2022-10-21T15:34:32.536Z,70.55
2022-10-21T15:37:35.657Z,70.53
2022-10-21T15:40:38.508Z,70.40
2022-10-21T15:43:43.014Z,70.27
2022-10-21T15:46:47.351Z,70.21
2022-10-21T15:49:50.775Z,70.14
2022-10-21T15:55:56.790Z,69.92
2022-10-21T15:58:59.659Z,69.83
2022-10-21T16:02:02.630Z,69.70
2022-10-21T16:05:05.755Z,69.59
2022-10-21T16:08:12.374Z,69.47
2022-10-21T16:11:29.658Z,69.47
2022-10-21T16:14:42.831Z,69.39
2022-10-21T16:17:49.488Z,69.32
2022-10-21T16:20:54.001Z,69.36
2022-10-21T16:23:58.456Z,69.39
2022-10-21T16:27:01.402Z,69.43
2022-10-21T16:30:24.950Z,69.39
2022-10-21T16:33:27.896Z,69.48
2022-10-21T16:36:36.682Z,69.52
2022-10-21T16:39:39.525Z,69.56
2022-10-21T16:42:42.532Z,69.55
2022-10-21T16:45:45.682Z,69.53
2022-10-21T16:48:48.709Z,69.59
2022-10-21T16:51:57.449Z,69.62
2022-10-21T16:55:00.359Z,69.64
2022-10-21T16:58:03.367Z,69.63
2022-10-21T17:01:08.417Z,69.71
2022-10-21T17:04:14.249Z,69.66
2022-10-21T17:07:17.330Z,69.60
2022-10-21T17:10:20.551Z,69.60
2022-10-21T17:13:23.413Z,69.61
2022-10-21T17:16:26.358Z,69.51
2022-10-21T17:19:29.330Z,69.43
2022-10-21T17:22:32.461Z,69.33
2022-10-21T17:25:35.895Z,69.22
2022-10-21T17:28:38.765Z,69.15
2022-10-21T17:31:43.566Z,69.11
2022-10-21T17:34:46.505Z,69.03
2022-10-21T17:37:50.401Z,69.01
2022-10-21T17:40:53.971Z,68.91
2022-10-21T17:43:57.237Z,68.84
2022-10-21T17:47:00.295Z,68.84
2022-10-21T17:50:03.664Z,68.67
2022-10-21T17:53:07.095Z,68.57
2022-10-21T17:56:11.301Z,68.56
2022-10-21T17:59:14.156Z,68.60
2022-10-21T18:02:17.036Z,68.57
2022-10-21T18:05:20.090Z,68.46
2022-10-21T18:08:24.141Z,68.48
2022-10-21T18:11:26.968Z,68.55
2022-10-21T18:14:29.894Z,68.33
2022-10-21T18:17:33.973Z,68.22
2022-10-21T18:20:36.884Z,68.18
2022-10-21T18:23:43.248Z,68.27
2022-10-21T18:26:46.125Z,68.23
2022-10-21T18:29:49.206Z,68.31
2022-10-21T18:32:52.106Z,68.49
2022-10-21T18:35:54.951Z,68.44
2022-10-21T18:39:01.545Z,68.56
2022-10-21T18:42:07.255Z,68.64
2022-10-21T18:45:10.395Z,68.77
2022-10-21T18:48:13.340Z,68.98
2022-10-21T18:51:17.926Z,69.19
2022-10-21T18:54:20.913Z,69.24
2022-10-21T18:57:24.021Z,69.53
2022-10-21T19:00:27.682Z,69.96
2022-10-21T19:03:30.847Z,70.55
2022-10-21T19:06:43.801Z,71.14
2022-10-21T19:09:47.283Z,71.39
2022-10-21T19:12:52.455Z,71.86
2022-10-21T19:19:14.212Z,72.54
2022-10-21T19:22:18.410Z,72.65
2022-10-21T19:25:23.724Z,72.88
2022-10-21T19:28:26.633Z,73.14
2022-10-21T19:31:31.444Z,73.24
2022-10-21T19:34:36.606Z,73.20
2022-10-21T19:37:40.158Z,73.21
2022-10-21T19:40:43.175Z,73.25
2022-10-21T19:44:00.440Z,73.36
2022-10-21T19:47:03.358Z,73.47
2022-10-21T19:50:07.035Z,73.43
2022-10-21T19:53:09.983Z,73.61
2022-10-21T19:56:14.168Z,73.65
2022-10-21T20:02:20.839Z,73.53
2022-10-21T20:05:23.863Z,73.48
2022-10-21T20:11:35.040Z,73.51
2022-10-21T20:14:38.217Z,73.40
2022-10-21T20:17:41.468Z,73.46
2022-10-21T20:20:44.513Z,73.53
2022-10-21T20:23:51.756Z,73.38
2022-10-21T20:26:58.369Z,73.33
2022-10-21T20:30:04.970Z,73.39
2022-10-21T20:33:10.492Z,73.47
2022-10-21T20:36:34.055Z,73.40
2022-10-21T20:39:37.291Z,73.33
2022-10-21T20:42:40.500Z,73.27
2022-10-21T20:45:43.876Z,73.27
2022-10-21T20:48:49.250Z,73.18
2022-10-21T20:51:52.149Z,73.00
2022-10-21T20:58:13.468Z,72.75
2022-10-21T21:01:20.325Z,72.65
2022-10-21T21:04:25.379Z,72.60
2022-10-21T21:07:28.292Z,72.48
2022-10-21T21:10:34.919Z,72.40
2022-10-21T21:13:41.997Z,72.32
2022-10-21T21:16:47.463Z,72.34
2022-10-21T21:19:50.537Z,72.25
2022-10-21T21:22:53.430Z,72.17
2022-10-21T21:26:26.971Z,71.98
2022-10-21T21:29:31.906Z,71.97
2022-10-21T21:32:34.977Z,72.01
2022-10-21T21:35:38.101Z,71.98
2022-10-21T21:38:41.924Z,71.91
2022-10-21T21:41:44.833Z,71.74
2022-10-21T21:44:47.782Z,71.66
2022-10-21T21:47:50.652Z,71.65
2022-10-21T21:51:09.684Z,71.53
2022-10-21T21:54:12.601Z,71.55
2022-10-21T21:57:27.381Z,71.46
2022-10-21T22:00:31.638Z,71.42
2022-10-21T22:03:34.567Z,71.38
2022-10-21T22:06:38.535Z,71.44
2022-10-21T22:09:41.493Z,71.43
2022-10-21T22:12:44.979Z,71.40
2022-10-21T22:15:48.604Z,71.34
2022-10-21T22:18:51.914Z,71.29
2022-10-21T22:21:54.838Z,71.06
2022-10-21T22:24:57.636Z,71.00
2022-10-21T22:28:00.470Z,71.00
2022-10-21T22:31:07.083Z,70.91
2022-10-21T22:34:11.894Z,70.78
2022-10-21T22:37:15.054Z,70.71
2022-10-21T22:40:17.945Z,70.62
2022-10-21T22:43:20.961Z,70.71
2022-10-21T22:46:39.403Z,70.58
2022-10-21T22:49:43.729Z,70.51
2022-10-21T22:52:47.255Z,70.44
2022-10-21T22:55:50.434Z,70.48
2022-10-21T22:58:53.973Z,70.48
2022-10-21T23:01:56.819Z,70.44
2022-10-21T23:04:59.867Z,70.48
2022-10-21T23:08:02.762Z,70.44
2022-10-21T23:11:05.788Z,70.28
2022-10-21T23:14:09.601Z,70.11
2022-10-21T23:17:12.497Z,70.10
2022-10-21T23:20:15.475Z,70.07
2022-10-21T23:23:18.415Z,70.00
2022-10-21T23:26:21.540Z,70.00
2022-10-21T23:29:24.439Z,69.98
2022-10-21T23:32:29.511Z,69.88
2022-10-21T23:35:32.824Z,69.87
2022-10-21T23:38:35.694Z,69.87
2022-10-21T23:41:38.551Z,69.92
2022-10-21T23:44:41.585Z,69.98
2022-10-21T23:47:44.590Z,69.87
2022-10-21T23:50:47.612Z,69.86
2022-10-21T23:53:50.562Z,69.80
2022-10-21T23:56:53.467Z,69.79
2022-10-21T23:59:56.400Z,69.78
